sensor_id;sensor_type;location;lat;lon;timestamp;temperature;humidity
4079;DHT22;2054;47.858;11.156;2023-12-20T03:45:46;6.60;99.90
4079;DHT22;2054;47.858;11.156;2023-12-20T03:48:13;6.70;99.90
4079;DHT22;2054;47.858;11.156;2023-12-20T03:50:42;6.60;99.90
4079;DHT22;2054;47.858;11.156;2023-12-20T03:53:09;6.70;99.90
4079;DHT22;2054;47.858;11.156;2023-12-20T03:55:36;6.70;99.90
4079;DHT22;2054;47.858;11.156;2023-12-20T03:58:03;6.70;99.90
4079;DHT22;2054;47.858;11.156;2023-12-20T04:00:30;6.70;99.90
4079;DHT22;2054;47.858;11.156;2023-12-20T04:02:59;6.70;99.90
4079;DHT22;2054;47.858;11.156;2023-12-20T04:05:26;6.70;99.90
4079;DHT22;2054;47.858;11.156;2023-12-20T04:07:53;6.70;99.90
4079;DHT22;2054;47.858;11.156;2023-12-20T04:10:20;6.70;99.90
4079;DHT22;2054;47.858;11.156;2023-12-20T04:12:47;6.70;99.90
4079;DHT22;2054;47.858;11.156;2023-12-20T04:15:14;6.70;99.90
4079;DHT22;2054;47.858;11.156;2023-12-20T04:17:40;6.70;99.90
4079;DHT22;2054;47.858;11.156;2023-12-20T04:20:10;6.60;99.90
4079;DHT22;2054;47.858;11.156;2023-12-20T04:22:38;6.50;99.90
4079;DHT22;2054;47.858;11.156;2023-12-20T04:25:05;6.40;99.90
4079;DHT22;2054;47.858;11.156;2023-12-20T04:27:32;6.30;99.90
4079;DHT22;2054;47.858;11.156;2023-12-20T04:30:00;6.30;99.90
4079;DHT22;2054;47.858;11.156;2023-12-20T04:32:26;6.20;99.90
4079;DHT22;2054;47.858;11.156;2023-12-20T04:34:53;6.20;99.90
4079;DHT22;2054;47.858;11.156;2023-12-20T04:37:22;6.20;99.90
4079;DHT22;2054;47.858;11.156;2023-12-20T04:39:48;6.20;99.90
4079;DHT22;2054;47.858;11.156;2023-12-20T04:42:17;6.20;99.90
4079;DHT22;2054;47.858;11.156;2023-12-20T04:44:44;6.20;99.90
4079;DHT22;2054;47.858;11.156;2023-12-20T04:47:13;6.20;99.90
4079;DHT22;2054;47.858;11.156;2023-12-20T04:49:40;6.20;99.90
4079;DHT22;2054;47.858;11.156;2023-12-20T04:52:07;6.20;99.90
4079;DHT22;2054;47.858;11.156;2023-12-20T04:54:35;6.30;99.90
4079;DHT22;2054;47.858;11.156;2023-12-20T04:57:02;6.40;99.90
4079;DHT22;2054;47.858;11.156;2023-12-20T04:59:29;6.40;99.90
4079;DHT22;2054;47.858;11.156;2023-12-20T05:01:56;6.40;99.90
4079;DHT22;2054;47.858;11.156;2023-12-20T05:04:24;6.40;99.90
4079;DHT22;2054;47.858;11.156;2023-12-20T05:06:52;6.50;99.90
4079;DHT22;2054;47.858;11.156;2023-12-20T05:09:19;6.50;99.90
4079;DHT22;2054;47.858;11.156;2023-12-20T05:11:47;6.50;99.90
4079;DHT22;2054;47.858;11.156;2023-12-20T05:14:16;6.50;99.90
4079;DHT22;2054;47.858;11.156;2023-12-20T05:16:43;6.60;99.90
4079;DHT22;2054;47.858;11.156;2023-12-20T05:19:11;6.60;99.90
4079;DHT22;2054;47.858;11.156;2023-12-20T05:21:38;6.60;99.90
4079;DHT22;2054;47.858;11.156;2023-12-20T05:24:05;6.70;99.90
4079;DHT22;2054;47.858;11.156;2023-12-20T05:26:32;6.60;99.90
4079;DHT22;2054;47.858;11.156;2023-12-20T05:29:00;6.60;99.90
4079;DHT22;2054;47.858;11.156;2023-12-20T05:31:27;6.60;99.90
4079;DHT22;2054;47.858;11.156;2023-12-20T05:33:54;6.60;99.90
4079;DHT22;2054;47.858;11.156;2023-12-20T05:36:21;6.50;99.90
4079;DHT22;2054;47.858;11.156;2023-12-20T05:38:48;6.40;99.90
4079;DHT22;2054;47.858;11.156;2023-12-20T05:41:15;6.30;99.90
4079;DHT22;2054;47.858;11.156;2023-12-20T05:43:42;6.20;99.90
4079;DHT22;2054;47.858;11.156;2023-12-20T05:46:11;6.20;99.90
4079;DHT22;2054;47.858;11.156;2023-12-20T05:48:38;6.10;99.90
4079;DHT22;2054;47.858;11.156;2023-12-20T05:51:07;6.10;99.90
4079;DHT22;2054;47.858;11.156;2023-12-20T05:53:34;6.00;99.90
4079;DHT22;2054;47.858;11.156;2023-12-20T05:56:01;5.90;99.90
4079;DHT22;2054;47.858;11.156;2023-12-20T05:58:28;6.00;99.90
4079;DHT22;2054;47.858;11.156;2023-12-20T06:00:55;5.80;99.90
4079;DHT22;2054;47.858;11.156;2023-12-20T06:03:24;5.80;99.90
4079;DHT22;2054;47.858;11.156;2023-12-20T06:05:51;5.90;99.90
4079;DHT22;2054;47.858;11.156;2023-12-20T06:08:18;5.80;99.90
4079;DHT22;2054;47.858;11.156;2023-12-20T06:10:45;5.80;99.90
4079;DHT22;2054;47.858;11.156;2023-12-20T06:13:12;5.80;99.90
4079;DHT22;2054;47.858;11.156;2023-12-20T06:15:39;5.80;99.90
4079;DHT22;2054;47.858;11.156;2023-12-20T06:18:07;5.70;99.90
4079;DHT22;2054;47.858;11.156;2023-12-20T06:20:35;5.70;99.90
4079;DHT22;2054;47.858;11.156;2023-12-20T06:23:03;5.50;99.90
4079;DHT22;2054;47.858;11.156;2023-12-20T06:25:30;5.50;99.90
4079;DHT22;2054;47.858;11.156;2023-12-20T06:27:57;5.50;99.90
4079;DHT22;2054;47.858;11.156;2023-12-20T06:30:24;5.40;99.90
4079;DHT22;2054;47.858;11.156;2023-12-20T06:32:53;5.40;99.90
4079;DHT22;2054;47.858;11.156;2023-12-20T06:35:20;5.40;99.90
4079;DHT22;2054;47.858;11.156;2023-12-20T06:37:49;5.40;99.90
4079;DHT22;2054;47.858;11.156;2023-12-20T06:40:16;5.40;99.90
4079;DHT22;2054;47.858;11.156;2023-12-20T06:42:43;5.50;99.90
4079;DHT22;2054;47.858;11.156;2023-12-20T06:45:10;5.40;99.90
4079;DHT22;2054;47.858;11.156;2023-12-20T06:47:38;5.40;99.90
4079;DHT22;2054;47.858;11.156;2023-12-20T06:50:05;5.40;99.90
4079;DHT22;2054;47.858;11.156;2023-12-20T06:52:34;5.40;99.90
4079;DHT22;2054;47.858;11.156;2023-12-20T06:55:03;5.40;99.90
4079;DHT22;2054;47.858;11.156;2023-12-20T06:57:30;5.40;99.90
4079;DHT22;2054;47.858;11.156;2023-12-20T06:59:57;5.30;99.90
4079;DHT22;2054;47.858;11.156;2023-12-20T07:02:24;5.10;99.90
4079;DHT22;2054;47.858;11.156;2023-12-20T07:04:51;5.10;99.90
4079;DHT22;2054;47.858;11.156;2023-12-20T07:07:18;5.10;99.90
4079;DHT22;2054;47.858;11.156;2023-12-20T07:09:45;5.00;99.90
4079;DHT22;2054;47.858;11.156;2023-12-20T07:12:13;5.00;99.90
4079;DHT22;2054;47.858;11.156;2023-12-20T07:14:41;5.00;99.90
4079;DHT22;2054;47.858;11.156;2023-12-20T07:17:08;5.00;99.90
4079;DHT22;2054;47.858;11.156;2023-12-20T07:19:37;4.90;99.90
4079;DHT22;2054;47.858;11.156;2023-12-20T07:22:04;4.90;99.90
4079;DHT22;2054;47.858;11.156;2023-12-20T07:24:31;4.80;99.90
4079;DHT22;2054;47.858;11.156;2023-12-20T07:26:58;4.80;99.90
4079;DHT22;2054;47.858;11.156;2023-12-20T07:29:29;4.80;99.90
4079;DHT22;2054;47.858;11.156;2023-12-20T07:31:55;4.70;99.90
4079;DHT22;2054;47.858;11.156;2023-12-20T07:34:22;5.00;99.90
4079;DHT22;2054;47.858;11.156;2023-12-20T07:36:49;4.90;99.90
4079;DHT22;2054;47.858;11.156;2023-12-20T07:39:16;4.90;99.90
4079;DHT22;2054;47.858;11.156;2023-12-20T07:41:44;4.90;99.90
4079;DHT22;2054;47.858;11.156;2023-12-20T07:44:11;4.90;99.90
4079;DHT22;2054;47.858;11.156;2023-12-20T07:46:39;5.00;99.90
4079;DHT22;2054;47.858;11.156;2023-12-20T07:49:06;4.90;99.90
4079;DHT22;2054;47.858;11.156;2023-12-20T07:51:34;4.90;99.90
4079;DHT22;2054;47.858;11.156;2023-12-20T07:54:00;5.00;99.90
4079;DHT22;2054;47.858;11.156;2023-12-20T07:56:29;5.00;99.90
4079;DHT22;2054;47.858;11.156;2023-12-20T07:58:56;5.00;99.90
4079;DHT22;2054;47.858;11.156;2023-12-20T08:01:23;5.10;99.90
4079;DHT22;2054;47.858;11.156;2023-12-20T08:03:51;5.00;99.90
4079;DHT22;2054;47.858;11.156;2023-12-20T08:06:18;5.00;99.90
4079;DHT22;2054;47.858;11.156;2023-12-20T08:08:47;5.00;99.90
4079;DHT22;2054;47.858;11.156;2023-12-20T08:11:23;5.00;99.90
4079;DHT22;2054;47.858;11.156;2023-12-20T08:13:50;5.10;99.90
4079;DHT22;2054;47.858;11.156;2023-12-20T08:16:17;5.00;99.90
4079;DHT22;2054;47.858;11.156;2023-12-20T08:18:44;5.10;99.90
4079;DHT22;2054;47.858;11.156;2023-12-20T08:21:13;5.00;99.90
4079;DHT22;2054;47.858;11.156;2023-12-20T08:23:40;5.10;99.90
4079;DHT22;2054;47.858;11.156;2023-12-20T08:26:07;5.10;99.90
4079;DHT22;2054;47.858;11.156;2023-12-20T08:28:34;5.10;99.90
4079;DHT22;2054;47.858;11.156;2023-12-20T08:31:01;5.10;99.90
4079;DHT22;2054;47.858;11.156;2023-12-20T08:33:28;5.10;99.90
4079;DHT22;2054;47.858;11.156;2023-12-20T08:35:55;5.20;99.90
4079;DHT22;2054;47.858;11.156;2023-12-20T08:38:24;5.10;99.90
4079;DHT22;2054;47.858;11.156;2023-12-20T08:40:51;5.10;99.90
4079;DHT22;2054;47.858;11.156;2023-12-20T08:43:17;5.10;99.90
4079;DHT22;2054;47.858;11.156;2023-12-20T08:45:46;5.10;99.90
4079;DHT22;2054;47.858;11.156;2023-12-20T08:48:13;5.10;99.90
4079;DHT22;2054;47.858;11.156;2023-12-20T08:50:40;5.10;99.90
4079;DHT22;2054;47.858;11.156;2023-12-20T08:53:08;5.20;99.90
4079;DHT22;2054;47.858;11.156;2023-12-20T08:55:37;5.20;99.90
4079;DHT22;2054;47.858;11.156;2023-12-20T08:58:04;5.30;99.90
4079;DHT22;2054;47.858;11.156;2023-12-20T09:00:32;5.30;99.90
4079;DHT22;2054;47.858;11.156;2023-12-20T09:02:59;5.30;99.90
4079;DHT22;2054;47.858;11.156;2023-12-20T09:05:26;5.30;99.90
4079;DHT22;2054;47.858;11.156;2023-12-20T09:07:53;5.40;99.90
4079;DHT22;2054;47.858;11.156;2023-12-20T09:10:20;5.40;99.90
4079;DHT22;2054;47.858;11.156;2023-12-20T09:12:50;5.50;99.90
4079;DHT22;2054;47.858;11.156;2023-12-20T09:15:17;5.60;99.90
4079;DHT22;2054;47.858;11.156;2023-12-20T09:17:44;5.60;99.90
4079;DHT22;2054;47.858;11.156;2023-12-20T09:20:11;5.80;99.90
4079;DHT22;2054;47.858;11.156;2023-12-20T09:22:39;5.90;99.90
4079;DHT22;2054;47.858;11.156;2023-12-20T09:25:08;5.70;99.90
4079;DHT22;2054;47.858;11.156;2023-12-20T09:27:35;5.70;99.90
4079;DHT22;2054;47.858;11.156;2023-12-20T09:30:05;5.70;99.90
4079;DHT22;2054;47.858;11.156;2023-12-20T09:32:32;5.80;99.90
4079;DHT22;2054;47.858;11.156;2023-12-20T09:34:59;5.90;99.90
4079;DHT22;2054;47.858;11.156;2023-12-20T09:37:27;5.90;99.90
4079;DHT22;2054;47.858;11.156;2023-12-20T09:39:55;5.90;99.90
4079;DHT22;2054;47.858;11.156;2023-12-20T09:42:25;6.00;99.90
4079;DHT22;2054;47.858;11.156;2023-12-20T09:44:58;6.10;99.90
4079;DHT22;2054;47.858;11.156;2023-12-20T09:47:30;6.00;99.90
4079;DHT22;2054;47.858;11.156;2023-12-20T09:49:57;6.00;99.90
4079;DHT22;2054;47.858;11.156;2023-12-20T09:52:24;6.10;99.90
4079;DHT22;2054;47.858;11.156;2023-12-20T09:54:53;6.00;99.90
4079;DHT22;2054;47.858;11.156;2023-12-20T09:57:21;6.10;99.90
4079;DHT22;2054;47.858;11.156;2023-12-20T09:59:47;6.10;99.90
4079;DHT22;2054;47.858;11.156;2023-12-20T10:02:15;6.10;99.90
4079;DHT22;2054;47.858;11.156;2023-12-20T10:04:47;6.10;99.90
4079;DHT22;2054;47.858;11.156;2023-12-20T10:07:14;6.10;99.90
4079;DHT22;2054;47.858;11.156;2023-12-20T10:09:42;6.10;99.90
4079;DHT22;2054;47.858;11.156;2023-12-20T10:12:09;6.10;99.90
4079;DHT22;2054;47.858;11.156;2023-12-20T10:14:37;6.10;99.90
4079;DHT22;2054;47.858;11.156;2023-12-20T10:17:05;6.10;99.90
4079;DHT22;2054;47.858;11.156;2023-12-20T10:19:33;6.20;99.90
4079;DHT22;2054;47.858;11.156;2023-12-20T10:22:04;6.20;99.90
4079;DHT22;2054;47.858;11.156;2023-12-20T10:24:32;6.30;99.90
4079;DHT22;2054;47.858;11.156;2023-12-20T10:27:03;6.30;99.90
4079;DHT22;2054;47.858;11.156;2023-12-20T10:29:34;6.30;99.90
4079;DHT22;2054;47.858;11.156;2023-12-20T10:32:21;6.20;99.90
4079;DHT22;2054;47.858;11.156;2023-12-20T10:34:49;6.50;99.90
4079;DHT22;2054;47.858;11.156;2023-12-20T10:37:17;6.40;99.90
4079;DHT22;2054;47.858;11.156;2023-12-20T10:39:49;6.40;99.90
4079;DHT22;2054;47.858;11.156;2023-12-20T10:42:16;6.40;99.90
4079;DHT22;2054;47.858;11.156;2023-12-20T10:44:43;6.40;99.90
4079;DHT22;2054;47.858;11.156;2023-12-20T10:47:11;6.40;99.90
4079;DHT22;2054;47.858;11.156;2023-12-20T10:49:40;6.30;99.90
4079;DHT22;2054;47.858;11.156;2023-12-20T10:52:11;6.40;99.90
4079;DHT22;2054;47.858;11.156;2023-12-20T10:54:40;6.40;99.90
4079;DHT22;2054;47.858;11.156;2023-12-20T10:57:08;6.50;99.90
4079;DHT22;2054;47.858;11.156;2023-12-20T10:59:37;6.70;99.90
4079;DHT22;2054;47.858;11.156;2023-12-20T11:02:05;6.50;99.90
4079;DHT22;2054;47.858;11.156;2023-12-20T11:04:39;6.60;99.90
4079;DHT22;2054;47.858;11.156;2023-12-20T11:07:18;6.50;99.90
4079;DHT22;2054;47.858;11.156;2023-12-20T11:09:56;6.40;99.90
4079;DHT22;2054;47.858;11.156;2023-12-20T11:12:32;6.50;99.90
4079;DHT22;2054;47.858;11.156;2023-12-20T11:15:03;6.60;99.90
4079;DHT22;2054;47.858;11.156;2023-12-20T11:17:31;6.60;99.90
4079;DHT22;2054;47.858;11.156;2023-12-20T11:20:07;6.60;99.90
4079;DHT22;2054;47.858;11.156;2023-12-20T11:22:36;6.60;99.90
4079;DHT22;2054;47.858;11.156;2023-12-20T11:25:08;6.50;99.90
4079;DHT22;2054;47.858;11.156;2023-12-20T11:27:35;6.50;99.90
4079;DHT22;2054;47.858;11.156;2023-12-20T11:30:04;6.40;99.90
4079;DHT22;2054;47.858;11.156;2023-12-20T11:32:34;6.50;99.90
4079;DHT22;2054;47.858;11.156;2023-12-20T11:35:18;6.60;99.90
4079;DHT22;2054;47.858;11.156;2023-12-20T11:37:46;6.60;99.90
4079;DHT22;2054;47.858;11.156;2023-12-20T11:40:16;6.70;99.90
4079;DHT22;2054;47.858;11.156;2023-12-20T11:42:44;6.60;99.90
4079;DHT22;2054;47.858;11.156;2023-12-20T11:45:14;6.70;99.90
4079;DHT22;2054;47.858;11.156;2023-12-20T11:47:43;6.60;99.90
4079;DHT22;2054;47.858;11.156;2023-12-20T11:50:11;6.40;99.90
4079;DHT22;2054;47.858;11.156;2023-12-20T11:52:38;6.40;99.90
4079;DHT22;2054;47.858;11.156;2023-12-20T11:55:06;6.50;99.90
4079;DHT22;2054;47.858;11.156;2023-12-20T11:57:35;6.40;99.90
4079;DHT22;2054;47.858;11.156;2023-12-20T12:00:02;6.50;99.90
4079;DHT22;2054;47.858;11.156;2023-12-20T12:02:30;6.50;99.90
4079;DHT22;2054;47.858;11.156;2023-12-20T12:04:57;6.50;99.90
4079;DHT22;2054;47.858;11.156;2023-12-20T12:07:24;6.60;99.90
4079;DHT22;2054;47.858;11.156;2023-12-20T12:09:53;6.60;99.90
4079;DHT22;2054;47.858;11.156;2023-12-20T12:12:20;6.50;99.90
4079;DHT22;2054;47.858;11.156;2023-12-20T12:14:49;6.50;99.90
4079;DHT22;2054;47.858;11.156;2023-12-20T12:17:16;6.40;99.90
4079;DHT22;2054;47.858;11.156;2023-12-20T12:19:43;6.40;99.90
4079;DHT22;2054;47.858;11.156;2023-12-20T12:22:12;6.40;99.90
4079;DHT22;2054;47.858;11.156;2023-12-20T12:24:39;6.60;99.90
4079;DHT22;2054;47.858;11.156;2023-12-20T12:27:07;6.40;99.90
4079;DHT22;2054;47.858;11.156;2023-12-20T12:29:34;6.40;99.90
4079;DHT22;2054;47.858;11.156;2023-12-20T12:32:05;6.50;99.90
4079;DHT22;2054;47.858;11.156;2023-12-20T12:34:32;6.30;99.90
4079;DHT22;2054;47.858;11.156;2023-12-20T12:36:59;6.40;99.90
4079;DHT22;2054;47.858;11.156;2023-12-20T12:39:26;6.40;99.90
4079;DHT22;2054;47.858;11.156;2023-12-20T12:41:55;6.60;99.90
4079;DHT22;2054;47.858;11.156;2023-12-20T12:44:22;6.50;99.90
4079;DHT22;2054;47.858;11.156;2023-12-20T12:46:50;6.50;99.90
4079;DHT22;2054;47.858;11.156;2023-12-20T12:49:20;6.50;99.90
4079;DHT22;2054;47.858;11.156;2023-12-20T12:51:47;6.60;99.90
4079;DHT22;2054;47.858;11.156;2023-12-20T12:54:14;6.70;99.90
4079;DHT22;2054;47.858;11.156;2023-12-20T12:56:43;6.60;99.90
4079;DHT22;2054;47.858;11.156;2023-12-20T12:59:12;6.60;99.90
4079;DHT22;2054;47.858;11.156;2023-12-20T13:01:39;6.70;99.90
4079;DHT22;2054;47.858;11.156;2023-12-20T13:04:06;6.70;99.90
4079;DHT22;2054;47.858;11.156;2023-12-20T13:06:37;6.70;99.90
4079;DHT22;2054;47.858;11.156;2023-12-20T13:09:04;6.60;99.90
4079;DHT22;2054;47.858;11.156;2023-12-20T13:11:31;6.70;99.90
4079;DHT22;2054;47.858;11.156;2023-12-20T13:13:58;6.70;99.90
4079;DHT22;2054;47.858;11.156;2023-12-20T13:16:25;6.60;99.90
4079;DHT22;2054;47.858;11.156;2023-12-20T13:18:52;6.50;99.90
4079;DHT22;2054;47.858;11.156;2023-12-20T13:21:19;6.50;99.90
4079;DHT22;2054;47.858;11.156;2023-12-20T13:23:47;6.50;99.90
4079;DHT22;2054;47.858;11.156;2023-12-20T13:26:14;6.50;99.90
4079;DHT22;2054;47.858;11.156;2023-12-20T13:28:41;6.40;99.90
4079;DHT22;2054;47.858;11.156;2023-12-20T13:31:08;6.30;99.90
4079;DHT22;2054;47.858;11.156;2023-12-20T13:33:35;6.30;99.90
4079;DHT22;2054;47.858;11.156;2023-12-20T13:36:02;6.40;99.90
4079;DHT22;2054;47.858;11.156;2023-12-20T13:38:33;6.50;99.90
4079;DHT22;2054;47.858;11.156;2023-12-20T13:41:02;6.50;99.90
4079;DHT22;2054;47.858;11.156;2023-12-20T13:43:30;6.50;99.90
4079;DHT22;2054;47.858;11.156;2023-12-20T13:45:58;6.50;99.90
4079;DHT22;2054;47.858;11.156;2023-12-20T13:48:25;6.60;99.90
4079;DHT22;2054;47.858;11.156;2023-12-20T13:50:51;6.70;99.90
4079;DHT22;2054;47.858;11.156;2023-12-20T13:53:19;6.60;99.90
4079;DHT22;2054;47.858;11.156;2023-12-20T13:55:46;6.50;99.90
4079;DHT22;2054;47.858;11.156;2023-12-20T13:58:14;6.60;99.90
4079;DHT22;2054;47.858;11.156;2023-12-20T14:00:41;6.70;99.90
4079;DHT22;2054;47.858;11.156;2023-12-20T14:03:08;6.70;99.90
4079;DHT22;2054;47.858;11.156;2023-12-20T14:05:35;6.60;99.90
4079;DHT22;2054;47.858;11.156;2023-12-20T14:08:03;6.50;99.90
4079;DHT22;2054;47.858;11.156;2023-12-20T14:10:30;6.50;99.90
4079;DHT22;2054;47.858;11.156;2023-12-20T14:12:56;6.50;99.90
4079;DHT22;2054;47.858;11.156;2023-12-20T14:15:25;6.40;99.90
4079;DHT22;2054;47.858;11.156;2023-12-20T14:17:52;6.40;99.90
4079;DHT22;2054;47.858;11.156;2023-12-20T14:20:20;6.40;99.90
4079;DHT22;2054;47.858;11.156;2023-12-20T14:22:47;6.40;99.90
4079;DHT22;2054;47.858;11.156;2023-12-20T14:25:14;6.50;99.90
4079;DHT22;2054;47.858;11.156;2023-12-20T14:27:41;6.50;99.90
4079;DHT22;2054;47.858;11.156;2023-12-20T14:30:10;6.60;99.90
4079;DHT22;2054;47.858;11.156;2023-12-20T14:32:40;6.60;99.90
4079;DHT22;2054;47.858;11.156;2023-12-20T14:35:08;6.50;99.90
4079;DHT22;2054;47.858;11.156;2023-12-20T14:37:35;6.40;99.90
4079;DHT22;2054;47.858;11.156;2023-12-20T14:40:05;6.30;99.90
4079;DHT22;2054;47.858;11.156;2023-12-20T14:42:35;5.80;99.90
4079;DHT22;2054;47.858;11.156;2023-12-20T14:45:03;5.70;99.90
4079;DHT22;2054;47.858;11.156;2023-12-20T14:47:30;5.50;99.90
4079;DHT22;2054;47.858;11.156;2023-12-20T14:50:00;5.50;99.90
4079;DHT22;2054;47.858;11.156;2023-12-20T14:52:27;5.50;99.90
4079;DHT22;2054;47.858;11.156;2023-12-20T14:54:53;5.40;99.90
4079;DHT22;2054;47.858;11.156;2023-12-20T14:57:20;5.40;99.90
4079;DHT22;2054;47.858;11.156;2023-12-20T14:59:48;5.40;99.90
4079;DHT22;2054;47.858;11.156;2023-12-20T15:02:14;5.30;99.90
4079;DHT22;2054;47.858;11.156;2023-12-20T15:04:42;5.20;99.90
4079;DHT22;2054;47.858;11.156;2023-12-20T15:07:11;5.20;99.90
4079;DHT22;2054;47.858;11.156;2023-12-20T15:09:38;5.10;99.90
4079;DHT22;2054;47.858;11.156;2023-12-20T15:12:06;5.00;99.90
4079;DHT22;2054;47.858;11.156;2023-12-20T15:14:34;5.10;99.90
4079;DHT22;2054;47.858;11.156;2023-12-20T15:17:03;5.20;99.90
4079;DHT22;2054;47.858;11.156;2023-12-20T15:19:30;5.20;99.90
4079;DHT22;2054;47.858;11.156;2023-12-20T15:21:57;5.30;99.90
4079;DHT22;2054;47.858;11.156;2023-12-20T15:24:27;5.40;99.90
4079;DHT22;2054;47.858;11.156;2023-12-20T15:27:02;5.40;99.90
4079;DHT22;2054;47.858;11.156;2023-12-20T15:29:29;5.20;99.90
4079;DHT22;2054;47.858;11.156;2023-12-20T15:31:56;5.20;99.90
4079;DHT22;2054;47.858;11.156;2023-12-20T15:34:24;5.20;99.90
4079;DHT22;2054;47.858;11.156;2023-12-20T15:36:51;5.20;99.90
4079;DHT22;2054;47.858;11.156;2023-12-20T15:39:18;5.20;99.90
4079;DHT22;2054;47.858;11.156;2023-12-20T15:41:47;5.40;99.90
4079;DHT22;2054;47.858;11.156;2023-12-20T15:44:14;5.50;99.90
4079;DHT22;2054;47.858;11.156;2023-12-20T15:46:42;5.60;99.90
4079;DHT22;2054;47.858;11.156;2023-12-20T15:49:09;5.70;99.90
4079;DHT22;2054;47.858;11.156;2023-12-20T15:51:36;5.80;99.90
4079;DHT22;2054;47.858;11.156;2023-12-20T15:54:04;5.90;99.90
4079;DHT22;2054;47.858;11.156;2023-12-20T15:56:55;5.90;99.90
4079;DHT22;2054;47.858;11.156;2023-12-20T15:59:25;6.00;99.90
4079;DHT22;2054;47.858;11.156;2023-12-20T16:01:52;6.00;99.90
4079;DHT22;2054;47.858;11.156;2023-12-20T16:04:19;6.00;99.90
4079;DHT22;2054;47.858;11.156;2023-12-20T16:06:48;6.00;99.90
4079;DHT22;2054;47.858;11.156;2023-12-20T16:09:15;6.10;99.90
4079;DHT22;2054;47.858;11.156;2023-12-20T16:11:42;6.00;99.90
4079;DHT22;2054;47.858;11.156;2023-12-20T16:14:11;5.90;99.90
4079;DHT22;2054;47.858;11.156;2023-12-20T16:16:43;5.80;99.90
4079;DHT22;2054;47.858;11.156;2023-12-20T16:19:10;5.70;99.90
4079;DHT22;2054;47.858;11.156;2023-12-20T16:21:37;5.60;99.90
4079;DHT22;2054;47.858;11.156;2023-12-20T16:24:05;5.60;99.90
4079;DHT22;2054;47.858;11.156;2023-12-20T16:26:32;5.60;99.90
4079;DHT22;2054;47.858;11.156;2023-12-20T16:29:00;5.60;99.90
4079;DHT22;2054;47.858;11.156;2023-12-20T16:31:28;5.60;99.90
4079;DHT22;2054;47.858;11.156;2023-12-20T16:33:55;5.60;99.90
4079;DHT22;2054;47.858;11.156;2023-12-20T16:36:23;5.60;99.90
4079;DHT22;2054;47.858;11.156;2023-12-20T16:38:49;5.60;99.90
4079;DHT22;2054;47.858;11.156;2023-12-20T16:41:16;5.50;99.90
4079;DHT22;2054;47.858;11.156;2023-12-20T16:43:43;5.50;99.90
4079;DHT22;2054;47.858;11.156;2023-12-20T16:46:11;5.50;99.90
4079;DHT22;2054;47.858;11.156;2023-12-20T16:48:40;5.40;99.90
4079;DHT22;2054;47.858;11.156;2023-12-20T16:51:07;5.40;99.90
4079;DHT22;2054;47.858;11.156;2023-12-20T16:53:33;5.50;99.90
4079;DHT22;2054;47.858;11.156;2023-12-20T16:56:00;5.50;99.90
4079;DHT22;2054;47.858;11.156;2023-12-20T16:58:27;5.40;99.90
4079;DHT22;2054;47.858;11.156;2023-12-20T17:00:57;5.00;99.90
4079;DHT22;2054;47.858;11.156;2023-12-20T17:03:24;5.00;99.90
4079;DHT22;2054;47.858;11.156;2023-12-20T17:05:54;5.00;99.90
4079;DHT22;2054;47.858;11.156;2023-12-20T17:08:21;5.00;99.90
4079;DHT22;2054;47.858;11.156;2023-12-20T17:10:47;4.80;99.90
4079;DHT22;2054;47.858;11.156;2023-12-20T17:13:14;4.70;99.90
4079;DHT22;2054;47.858;11.156;2023-12-20T17:15:41;4.70;99.90
4079;DHT22;2054;47.858;11.156;2023-12-20T17:18:08;4.70;99.90
4079;DHT22;2054;47.858;11.156;2023-12-20T17:20:35;4.80;99.90
4079;DHT22;2054;47.858;11.156;2023-12-20T17:23:04;4.90;99.90
4079;DHT22;2054;47.858;11.156;2023-12-20T17:25:31;4.80;99.90
4079;DHT22;2054;47.858;11.156;2023-12-20T17:28:04;4.90;99.90
4079;DHT22;2054;47.858;11.156;2023-12-20T17:30:31;4.80;99.90
4079;DHT22;2054;47.858;11.156;2023-12-20T17:32:58;4.80;99.90
4079;DHT22;2054;47.858;11.156;2023-12-20T17:35:29;4.70;99.90
4079;DHT22;2054;47.858;11.156;2023-12-20T17:37:56;4.80;99.90
4079;DHT22;2054;47.858;11.156;2023-12-20T17:40:25;4.90;99.90
4079;DHT22;2054;47.858;11.156;2023-12-20T17:42:51;4.90;99.90
4079;DHT22;2054;47.858;11.156;2023-12-20T17:45:19;4.80;99.90
4079;DHT22;2054;47.858;11.156;2023-12-20T17:47:47;4.80;99.90
4079;DHT22;2054;47.858;11.156;2023-12-20T17:50:16;4.60;99.90
4079;DHT22;2054;47.858;11.156;2023-12-20T17:52:42;4.50;99.90
4079;DHT22;2054;47.858;11.156;2023-12-20T17:55:09;4.50;99.90
4079;DHT22;2054;47.858;11.156;2023-12-20T17:57:38;4.50;99.90
4079;DHT22;2054;47.858;11.156;2023-12-20T18:00:13;4.40;99.90
4079;DHT22;2054;47.858;11.156;2023-12-20T18:02:40;4.30;99.90
4079;DHT22;2054;47.858;11.156;2023-12-20T18:05:08;4.20;99.90
4079;DHT22;2054;47.858;11.156;2023-12-20T18:07:35;4.30;99.90
4079;DHT22;2054;47.858;11.156;2023-12-20T18:10:02;4.30;99.90
4079;DHT22;2054;47.858;11.156;2023-12-20T18:12:29;4.30;99.90
4079;DHT22;2054;47.858;11.156;2023-12-20T18:15:01;4.00;99.90
4079;DHT22;2054;47.858;11.156;2023-12-20T18:17:29;4.10;99.90
4079;DHT22;2054;47.858;11.156;2023-12-20T18:19:57;4.10;99.90
4079;DHT22;2054;47.858;11.156;2023-12-20T18:22:25;4.00;99.90
4079;DHT22;2054;47.858;11.156;2023-12-20T18:24:52;4.00;99.90
4079;DHT22;2054;47.858;11.156;2023-12-20T18:27:21;4.00;99.90
4079;DHT22;2054;47.858;11.156;2023-12-20T18:29:48;3.90;99.90
4079;DHT22;2054;47.858;11.156;2023-12-20T18:32:17;3.90;99.90
4079;DHT22;2054;47.858;11.156;2023-12-20T18:34:46;3.90;99.90
4079;DHT22;2054;47.858;11.156;2023-12-20T18:37:13;3.90;99.90
4079;DHT22;2054;47.858;11.156;2023-12-20T18:39:41;3.90;99.90
4079;DHT22;2054;47.858;11.156;2023-12-20T18:42:07;3.90;99.90
4079;DHT22;2054;47.858;11.156;2023-12-20T18:44:34;3.80;99.90
4079;DHT22;2054;47.858;11.156;2023-12-20T18:47:04;3.90;99.90
4079;DHT22;2054;47.858;11.156;2023-12-20T18:49:32;3.90;99.90
4079;DHT22;2054;47.858;11.156;2023-12-20T18:51:59;3.80;99.90
4079;DHT22;2054;47.858;11.156;2023-12-20T18:54:28;3.90;99.90
4079;DHT22;2054;47.858;11.156;2023-12-20T18:56:55;3.90;99.90
4079;DHT22;2054;47.858;11.156;2023-12-20T18:59:22;3.90;99.90
4079;DHT22;2054;47.858;11.156;2023-12-20T19:01:51;4.00;99.90
4079;DHT22;2054;47.858;11.156;2023-12-20T19:04:18;4.00;99.90
4079;DHT22;2054;47.858;11.156;2023-12-20T19:06:46;4.00;99.90
4079;DHT22;2054;47.858;11.156;2023-12-20T19:09:14;4.10;99.90
4079;DHT22;2054;47.858;11.156;2023-12-20T19:11:43;4.10;99.90
4079;DHT22;2054;47.858;11.156;2023-12-20T19:14:09;4.10;99.90
4079;DHT22;2054;47.858;11.156;2023-12-20T19:16:39;4.00;99.90
4079;DHT22;2054;47.858;11.156;2023-12-20T19:19:06;4.00;99.90
4079;DHT22;2054;47.858;11.156;2023-12-20T19:21:33;4.00;99.90
4079;DHT22;2054;47.858;11.156;2023-12-20T19:24:02;4.00;99.90
4079;DHT22;2054;47.858;11.156;2023-12-20T19:26:30;4.00;99.90
4079;DHT22;2054;47.858;11.156;2023-12-20T19:28:57;4.00;99.90
4079;DHT22;2054;47.858;11.156;2023-12-20T19:31:25;4.00;99.90
4079;DHT22;2054;47.858;11.156;2023-12-20T19:33:52;4.00;99.90
4079;DHT22;2054;47.858;11.156;2023-12-20T19:36:21;4.10;99.90
4079;DHT22;2054;47.858;11.156;2023-12-20T19:38:48;4.10;99.90
4079;DHT22;2054;47.858;11.156;2023-12-20T19:41:18;4.20;99.90
4079;DHT22;2054;47.858;11.156;2023-12-20T19:43:46;4.20;99.90
4079;DHT22;2054;47.858;11.156;2023-12-20T19:46:13;4.20;99.90
4079;DHT22;2054;47.858;11.156;2023-12-20T19:48:40;4.20;99.90
4079;DHT22;2054;47.858;11.156;2023-12-20T19:51:09;4.20;99.90